Facundo Flores

Olheiro - San Lorenzo
22 Fev 2027
Segunda-feira
Processo

Personalidade

Adaptabilidade (1) Ambição (11) Controvérsia (11) Lealdade (18) Pressão (8) Profissionalismo (6) Espírito Esportivo (20) Temperamento (11)

Perfil

Estilo de Treinamento Democrático
Licença Continental Pro
Determinação 10
Gestão de Pessoas 7
Motivação 10
Disciplina 13
Satisfação no Trabalho
50%
Fadiga
0%
Função Olheiro
Salário 95.7K p/s
Contrato 14.03.2028

Desempenho

Comportamento Normal
Eficácia do Treinamento
24%
Desenvolvimento do Jogador
40%
Prevenção de Lesões
35%
Implementação Tática
50%

Eventos Recentes

Avaliou um jogador agora
Participou de uma reunião de recrutamento agora
Avaliou um jogador agora
Avaliou um jogador agora
Avaliou um jogador agora
Avaliou um jogador 7d atrás
Avaliou um jogador 7d atrás
Avaliou um jogador 7d atrás

Monitorando agora

248
Jogador Clube Status Habilidade Confiança Observado Última observação Último voto
Haissem Hassan Bloemfontein Celtic Ativo 129 / 144 40% 10 21.02.2027 -
Esequiel Barco Spartak Moscow Ativo 133 / 137 40% 2 21.02.2027 -
Iqraam Rayners Mamelodi Sundowns Ativo 128 / 129 40% 1 21.02.2027 -
Ronaldo Rostov Ativo 124 / 122 40% 2 19.02.2027 -
Moussa Diaby Al-Ittihad Ativo 156 / 137 40% 2 19.02.2027 -
Emile Smith Rowe Fulham Ativo 155 / 148 40% 1 19.02.2027 -
Óscar Al-Diriyah Ativo 131 / 118 40% 4 18.02.2027 -
Galeno Al-Ahli Ativo 151 / 154 40% 2 18.02.2027 -
Kingsley Coman Al-Nassr Ativo 162 / 155 40% 1 18.02.2027 -
Abduvohid Ne'matov Nasaf Ativo 123 / 119 40% 1 17.02.2027 -
Sander Tangvik Hamburger SV Ativo 119 / 131 40% 1 17.02.2027 -
Oliver Dovin Coventry City Ativo 120 / 125 40% 1 17.02.2027 -
Valentin Rosier Osasuna Ativo 124 / 123 40% 2 16.02.2027 -
Gustavo Mantuan Zenit Ativo 139 / 136 40% 3 16.02.2027 -
Mahamadou Doumbia Al-Ittihad Ativo 126 / 144 40% 1 16.02.2027 -
Arsène Kouassi FC Lorient Ativo 130 / 132 40% 2 15.02.2027 -
Jelle Bataille Maccabi Haifa Ativo 130 / 136 40% 1 15.02.2027 -
Noah Sadiki Sunderland Ativo 142 / 137 40% 1 15.02.2027 -
Cristopher Fiermarin Defensa y Justicia Ativo 120 / 128 40% 2 14.02.2027 -
Maxim Borisko CSKA Moscow Ativo 122 / 112 40% 2 14.02.2027 -
Matevž Vidovšek Olimpija Ljubljana Ativo 119 / 119 40% 1 14.02.2027 -
Marquinhos Spartak Moscow Ativo 130 / 140 40% 2 12.02.2027 -
Morgan Whittaker Middlesbrough Ativo 124 / 123 40% 1 12.02.2027 -
Luciano Gondou CSKA Moscow Ativo 134 / 125 40% 1 11.02.2027 -
Theo Bongonda Al-Faisaly Ativo 131 / 121 40% 1 10.02.2027 -
Omari Hutchinson Nottingham Forest Ativo 143 / 155 40% 1 10.02.2027 -
Petar Stanić Ludogorets Ativo 134 / 145 40% 1 10.02.2027 -
Stanislav Agkatsev Krasnodar Ativo 140 / 130 40% 2 09.02.2027 -
Bernard Tekpetey Ludogorets Ativo 120 / 133 40% 2 09.02.2027 -
Musa Barrow Al-Khaleej Ativo 133 / 126 40% 2 09.02.2027 -
Dominik Takáč Slovan Bratislava Ativo 126 / 136 40% 1 09.02.2027 -
José Paradela Cruz Azul Ativo 140 / 139 40% 2 07.02.2027 -
Leandro Brey Boca Juniors Ativo 126 / 123 40% 1 07.02.2027 -
Stefan Drljača VfB Stuttgart Ativo 119 / 118 40% 1 07.02.2027 -
Maarten Paes Ajax Ativo 132 / 131 40% 1 07.02.2027 -
Marcelo Allende Mamelodi Sundowns Ativo 137 / 130 40% 1 07.02.2027 -
Moisés CSKA Moscow Ativo 131 / 124 40% 1 07.02.2027 -
Mohammed Abu Al-Shamat Al-Qadisiyah Ativo 120 / 117 40% 1 07.02.2027 -
Fashion Sakala Al-Fayha Ativo 122 / 123 40% 7 05.02.2027 -
Michel Ndary Adopo Cagliari Ativo 142 / 134 40% 2 05.02.2027 -
Jaden Philogene Ipswich Town Ativo 134 / 140 40% 1 05.02.2027 -
Luther Billiat Ajax Cape Town Ativo 129 / 132 40% 3 04.02.2027 -
Dion Lopy Al-Ittihad Ativo 127 / 133 40% 1 01.02.2027 -
Domagoj Bradarić Hellas Verona Ativo 129 / 142 40% 1 01.02.2027 -
Jason Al-Fayha Ativo 121 / 126 40% 4 30.01.2027 -
Zelimkhan Bakaev Lokomotiv Moscow Ativo 124 / 113 40% 1 30.01.2027 -
Juan Brunetta Tigres Ativo 141 / 146 40% 4 29.01.2027 -
Camilo Durán Bloemfontein Celtic Ativo 127 / 128 40% 4 29.01.2027 -
Kirill Glebov CSKA Moscow Ativo 124 / 132 40% 2 29.01.2027 -
Teboho Williams SuperSport United Ativo 126 / 128 40% 2 28.01.2027 -
Marco Pineda VfB Stuttgart Ativo 141 / 129 40% 3 28.01.2027 -
Axel Openda KV Oostende Ativo 133 / 135 40% 5 27.01.2027 -
Emmanuel Boateng Hapoel Tel Aviv Ativo 117 / 109 40% 3 27.01.2027 -
Siyanda Ndlovu Hearts of Oak Ativo 117 / 116 40% 2 26.01.2027 -
Léo Pereira CSKA Sofia Ativo 114 / 109 40% 1 26.01.2027 -
Moses Cobnan Krasnodar Ativo 113 / 115 40% 1 25.01.2027 -
Rubens Dinamo Moscow Ativo 125 / 122 40% 1 25.01.2027 -
Ilja Vakhania Krasnodar Ativo 125 / 129 40% 1 23.01.2027 -
Damián Puebla Orenburg Ativo 129 / 123 40% 1 23.01.2027 -
Hélio Varela Maccabi Tel Aviv Ativo 126 / 129 40% 1 21.01.2027 -
Thierry Rendall Correia Venezia Ativo 135 / 147 40% 1 21.01.2027 -
Stanley Mills Oxford United Ativo 127 / 122 40% 1 21.01.2027 -
Nahuel Ulariaga Al Ahli Ativo 126 / 117 40% 2 14.01.2027 -
Relebohile Mofokeng Orlando Pirates Ativo 114 / 119 40% 1 13.01.2027 -
Serginho Al Wasl Ativo 133 / 134 40% 2 10.01.2027 -
Mykola Shaparenko Dynamo Kyiv Ativo 125 / 126 40% 1 10.01.2027 -
Reda Khadra Qarabag Ativo 134 / 117 40% 4 09.01.2027 -
Oswin Appollis Orlando Pirates Ativo 119 / 123 40% 3 09.01.2027 -
Sergey Pinyaev Lokomotiv Moscow Ativo 126 / 134 40% 1 09.01.2027 -
Ammar Ramadan DAC Dunajska Streda Ativo 125 / 115 40% 1 09.01.2027 -
Alejo Dramisino Honved Ativo 115 / 119 40% 2 06.01.2027 -
Juan Manuel Boselli Krasnodar Ativo 124 / 129 40% 1 06.01.2027 -
Domagoj Drožđek Tractor Ativo 131 / 128 40% 3 05.01.2027 -
Itumeleng Tau Ajax Cape Town Ativo 123 / 114 40% 2 02.01.2027 -
Zizo Al Ahly Ativo 139 / 136 40% 1 02.01.2027 -
Marcelo Flores Tigres Ativo 117 / 117 40% 3 31.12.2026 -
Ali Soliman Masr El Makasa Ativo 122 / 132 40% 2 31.12.2026 -
Keagan Mothiba SuperSport United Ativo 113 / 114 40% 2 30.12.2026 -
Alfredo Garcia La Equidad Ativo 150 / 147 40% 1 30.12.2026 -
Alex Luna Instituto Ativo 131 / 127 40% 1 26.12.2026 -
John Okoye Ebuka Ittihad Ativo 120 / 124 40% 1 24.12.2026 -
Leandro Andrade Polissia Ativo 128 / 119 40% 4 22.12.2026 -
Akinkunmi Amoo Ismaily Ativo 121 / 117 40% 1 20.12.2026 -
Fernando Valenzuela Queretaro Ativo 123 / 129 40% 4 18.12.2026 -
Julio Alonso Huesca Ativo 116 / 111 40% 3 18.12.2026 -
Oleh Ocheretko Shakhtar Ativo 126 / 126 40% 2 17.12.2026 -
Milson Al Jazira Ativo 132 / 133 40% 1 15.12.2026 -
Keagan Hlatshwayo SuperSport United Ativo 113 / 115 40% 1 14.12.2026 -
Lucas Cepeda Elche Ativo 129 / 114 40% 1 14.12.2026 -
Mehdi Hashemnejad Tractor Ativo 117 / 126 40% 1 12.12.2026 -
Mohammad Mehdi Mohebi Persepolis Ativo 125 / 103 40% 1 12.12.2026 -
Vinicius Tobias Shakhtar Ativo 132 / 135 40% 2 09.12.2026 -
Franko Kovačević Ferencvaros Ativo 123 / 129 40% 1 08.12.2026 -
Jens Petter Hauge Bodo/Glimt Ativo 147 / 145 40% 2 03.12.2026 -
Facundo Torres Shakhtar Ativo 134 / 144 40% 1 03.12.2026 -
Jaminton Campaz Rosario Central Ativo 122 / 117 40% 3 01.12.2026 -
Wessam Abou Ali Columbus Crew Ativo 135 / 127 40% 2 30.11.2026 -
Ashkan Shojaei Siah Jamegan Ativo 126 / 132 40% 1 30.11.2026 -
Giorgos Giakoumakis Al Ain Ativo 134 / 137 40% 1 30.11.2026 -
Helinho Toluca Ativo 128 / 136 40% 4 29.11.2026 -
Veljko Birmančević Ferencvaros Ativo 141 / 131 40% 1 29.11.2026 -
Iván Martín Racing Club Ativo 140 / 139 40% 2 28.11.2026 -
Marcelino Moreno Lanús Ativo 134 / 127 40% 2 28.11.2026 -
Joel Andersson Ludogorets Ativo 123 / 126 40% 1 28.11.2026 -
Fernando Costanza Krylya Sovetov Ativo 118 / 118 40% 1 28.11.2026 -
Soufiane Rahimi Al Ain Ativo 141 / 144 40% 1 26.11.2026 -
Zack Steffen Colorado Rapids Ativo 132 / 132 40% 1 25.11.2026 -
Chris Brady Chicago Fire Ativo 126 / 133 40% 1 25.11.2026 -
Teboho Mokoena Mamelodi Sundowns Ativo 133 / 133 40% 3 24.11.2026 -
Youssef Belammari Al Ahly Ativo 123 / 112 40% 1 24.11.2026 -
Pablo Ramón Racing Club Ativo 126 / 131 40% 6 21.11.2026 -
Santiago Ascacíbar Boca Juniors Ativo 131 / 121 40% 2 21.11.2026 -
Iván Villalba Independiente Rivadavia Ativo 121 / 121 40% 1 21.11.2026 -
Emanuel Coronel Rosario Central Ativo 127 / 121 40% 2 20.11.2026 -
Josh Brownhill Al-Shabab Ativo 135 / 139 40% 1 20.11.2026 -
Williams Alarcón Boca Juniors Ativo 126 / 134 40% 1 20.11.2026 -
Luiz Felipe Rayo Vallecano Ativo 135 / 123 40% 2 19.11.2026 -
Yacine Adli Al-Shabab Ativo 144 / 132 40% 1 19.11.2026 -
Khuliso Mudau Mamelodi Sundowns Ativo 128 / 125 40% 2 17.11.2026 -
Gedson Fernandes Spartak Moscow Ativo 133 / 125 40% 1 17.11.2026 -
Adrián Marín Orlando City Ativo 127 / 123 40% 3 16.11.2026 -
David Junuzovic Mattersburg Ativo 137 / 115 40% 3 16.11.2026 -
Rodrigo Herrera Newell's Old Boys Ativo 125 / 118 40% 1 16.11.2026 -
Sergej Milinković-Savić Al-Hilal Ativo 159 / 156 40% 2 15.11.2026 -
Arturo Cipriani Astra Ativo 146 / 138 40% 1 14.11.2026 -
Saúl Salcedo Newell's Old Boys Ativo 128 / 123 40% 1 14.11.2026 -
Youssef Al Bloushi Al Shabab Ativo 139 / 149 40% 1 14.11.2026 -
Lucas Souto Defensa y Justicia Ativo 128 / 124 40% 2 07.11.2026 -
Gianluca Ferrari Atlético Tucumán Ativo 122 / 118 40% 1 07.11.2026 -
Dayne St. Clair Inter Miami CF Ativo 125 / 120 40% 3 06.11.2026 -
Kazuki Fujita Avispa Fukuoka Ativo 116 / 128 40% 1 06.11.2026 -
Ezequiel Centurión River Plate Ativo 124 / 117 40% 2 05.11.2026 -
Kevin Lomónaco Independiente Ativo 128 / 126 40% 1 04.11.2026 -
Oscar Salomón Newell's Old Boys Ativo 127 / 117 40% 2 01.11.2026 -
Yeray Athletic Bilbao Ativo 144 / 142 40% 1 31.10.2026 -
Franco Cristaldo Talleres Ativo 133 / 120 40% 1 31.10.2026 -
Victor Lind Hammarby Ativo 135 / 138 40% 1 25.10.2026 -
Sasha Marcich Lanús Ativo 131 / 129 40% 1 22.10.2026 -
Joaquín García Vélez Ativo 123 / 131 40% 1 22.10.2026 -
Pablo Maffeo Olympiacos Ativo 137 / 130 40% 4 19.10.2026 -
Robert Petkovic Zadar Ativo 129 / 134 40% 1 19.10.2026 -
Carlos Palacios Boca Juniors Ativo 124 / 125 40% 2 18.10.2026 -
Matko Miljevic Racing Club Ativo 121 / 120 40% 1 18.10.2026 -
Franco Ibarra Rosario Central Ativo 128 / 134 40% 1 17.10.2026 -
Gastón Benedetti Estudiantes Ativo 119 / 117 40% 1 17.10.2026 -
Philip Zinckernagel Chicago Fire Ativo 130 / 129 40% 1 16.10.2026 -
Aarón Molinas Defensa y Justicia Ativo 125 / 120 40% 1 16.10.2026 -
Gastón Lodico Racing Club Ativo 130 / 134 40% 1 16.10.2026 -
Yuma Suzuki Kashima Antlers Ativo 137 / 142 40% 2 15.10.2026 -
Keisuke Osako Sanfrecce Hiroshima Ativo 144 / 135 40% 3 14.10.2026 -
Jindřich Staněk Slavia Prague Ativo 131 / 141 40% 2 14.10.2026 -
Steven Alzate Atlanta United FC Ativo 128 / 130 40% 1 14.10.2026 -
Elías Rafn Ólafsson FC Midtjylland Ativo 127 / 120 40% 1 14.10.2026 -
Afimico Pululu Al-Hazem Ativo 119 / 133 40% 1 12.10.2026 -
Mateo Mendoza Godoy Cruz Ativo 128 / 119 40% 1 10.10.2026 -
Lucas Carrizo Newell's Old Boys Ativo 130 / 123 40% 1 10.10.2026 -
Santiago Cáseres Basel Ativo 123 / 132 40% 2 09.10.2026 -
Santiago Longo Belgrano Ativo 121 / 126 40% 1 09.10.2026 -
Felipe Peña Biafore Lanús Ativo 123 / 129 40% 2 08.10.2026 -
Harry Toffolo Charlotte Football Club Ativo 124 / 127 40% 1 08.10.2026 -
Matías Galarza Talleres Ativo 120 / 123 40% 1 07.10.2026 -
Niklas Hedl Rapid Wien Ativo 121 / 120 40% 1 07.10.2026 -
Aarón Quiros Vélez Ativo 130 / 118 40% 1 05.10.2026 -
Axel Alderweireld KV Oostende Ativo 148 / 129 40% 2 04.10.2026 -
Lucas Acosta Aldosivi Ativo 122 / 114 40% 2 04.10.2026 -
Tomás Marchiori Vélez Ativo 122 / 127 40% 2 03.10.2026 -
Matt Freese New York City Ativo 132 / 126 40% 2 03.10.2026 -
Uğurcan Çakır Galatasaray Ativo 142 / 125 40% 1 03.10.2026 -
Obinna Nwobodo FC Cincinnati Ativo 129 / 124 40% 1 01.10.2026 -
Emanuel Mammana Vélez Ativo 132 / 121 40% 1 30.09.2026 -
Ryan Gauld Vancouver Whitecaps Ativo 137 / 140 40% 3 29.09.2026 -
Diego Luna Real Salt Lake Ativo 127 / 129 40% 1 29.09.2026 -
Gabriel Neves Estudiantes Ativo 129 / 117 40% 1 28.09.2026 -
Malte Amundsen Columbus Crew Ativo 125 / 129 40% 1 28.09.2026 -
Anton Salétros Chicago Fire Ativo 123 / 129 40% 1 28.09.2026 -
Santiago Montiel Independiente Ativo 128 / 134 40% 3 26.09.2026 -
Andrés Herrera Columbus Crew Ativo 128 / 121 40% 1 26.09.2026 -
Vicente Poggi Godoy Cruz Ativo 126 / 121 40% 1 26.09.2026 -
Rob Holding Colorado Rapids Ativo 123 / 125 40% 1 26.09.2026 -
Tiago Palacios Estudiantes Ativo 127 / 129 40% 1 26.09.2026 -
Marcos López San Martín Ativo 132 / 129 40% 1 26.09.2026 -
Majid Dejagah Gostaresh Foulad Ativo 117 / 116 40% 1 24.09.2026 -
Marcelo Saracchi Houston Dynamo Ativo 131 / 124 40% 1 24.09.2026 -
Sebastián Villa Boca Juniors Ativo 125 / 119 40% 1 24.09.2026 -
Patrick Schulte Columbus Crew Ativo 125 / 124 40% 1 23.09.2026 -
Gerardo Arteaga Monterrey Ativo 126 / 123 40% 4 21.09.2026 -
Maílson Al-Taawoun Ativo 132 / 120 40% 2 21.09.2026 -
Álvaro Angulo Pumas UNAM Ativo 129 / 129 40% 2 21.09.2026 -
Victor Aznar Cádiz Ativo 129 / 122 40% 1 21.09.2026 -
Denis Adamov Zenit Ativo 115 / 133 40% 1 21.09.2026 -
Sergio Garcia La Equidad Ativo 132 / 128 40% 2 19.09.2026 -
Franco Romero Toluca Ativo 123 / 133 40% 2 19.09.2026 -
Sergio Barreto Pachuca Ativo 127 / 128 40% 1 19.09.2026 -
Victor Araujo Veracruz Ativo 152 / 147 40% 3 17.09.2026 -
Rubén Duarte Pumas UNAM Ativo 129 / 127 40% 2 17.09.2026 -
Willer Ditta Cruz Azul Ativo 136 / 129 40% 3 16.09.2026 -
Manuel Capasso Atlas Ativo 129 / 116 40% 2 16.09.2026 -
Felipe Zenobio Tigre Ativo 128 / 135 40% 3 16.09.2026 -
Svetoslav Vutsov Levski Ativo 116 / 121 40% 1 15.09.2026 -
Juan Pablo Domínguez Leon Ativo 125 / 134 40% 2 13.09.2026 -
Bryan González Guadalajara Ativo 134 / 123 40% 3 13.09.2026 -
Luís Esteves Atlas Ativo 126 / 135 40% 2 12.09.2026 -
Diego Lainez Tigres Ativo 128 / 126 40% 2 12.09.2026 -
Fernando Beltrán Leon Ativo 128 / 119 40% 2 10.09.2026 -
Richard Ledezma Guadalajara Ativo 129 / 126 40% 2 10.09.2026 -
Sergio Quintero La Equidad Ativo 139 / 141 40% 2 10.09.2026 -
Agustín Palavecino Cruz Azul Ativo 131 / 141 40% 2 08.09.2026 -
Salvador Reyes Leon Ativo 120 / 126 40% 2 08.09.2026 -
Franco Pardo Santos Laguna Ativo 123 / 118 40% 2 08.09.2026 -
Nathan Silva Pumas UNAM Ativo 125 / 131 40% 1 08.09.2026 -
Liam Varela Veracruz Ativo 126 / 132 40% 1 06.09.2026 -
Luis Malagón Club America Ativo 140 / 137 40% 2 04.09.2026 -
Orbelín Pineda Monterrey Ativo 142 / 131 40% 3 04.09.2026 -
Nahuel Furtado Wanderers Ativo 130 / 122 40% 2 04.09.2026 -
Carlos Acevedo Santos Laguna Ativo 134 / 120 40% 1 04.09.2026 -
Víctor Dávila Club America Ativo 131 / 129 40% 2 31.08.2026 -
Nicolas Ramirez La Equidad Ativo 130 / 137 40% 2 30.08.2026 -
Eliás Montiel Pachuca Ativo 125 / 137 40% 1 30.08.2026 -
Víctor Guzmán Toluca Ativo 122 / 129 40% 1 29.08.2026 -
Luis Romo Guadalajara Ativo 134 / 135 40% 3 27.08.2026 -
Jorge Sánchez Atlas Ativo 131 / 123 40% 3 26.08.2026 -
Ángel Correa River Plate Ativo 145 / 147 40% 1 26.08.2026 -
Gonzalo Piovi Cruz Azul Ativo 129 / 130 40% 1 26.08.2026 -
Israel Reyes Club America Ativo 135 / 133 40% 2 25.08.2026 -
Ramón Juárez Club America Ativo 131 / 125 40% 1 25.08.2026 -
Carlos Gruezo Santos Laguna Ativo 123 / 125 40% 1 25.08.2026 -
Cristian Calderón Pumas UNAM Ativo 123 / 130 40% 2 24.08.2026 -
Efraín Álvarez Guadalajara Ativo 133 / 131 40% 2 22.08.2026 -
Fernando Gorriarán Tigres Ativo 143 / 131 40% 1 22.08.2026 -
Cesar Corona Veracruz Ativo 129 / 139 40% 1 20.08.2026 -
Sergio Reguilón Inter Miami CF Ativo 135 / 130 40% 1 20.08.2026 -
Carlos Rodríguez Cruz Azul Ativo 137 / 138 40% 2 19.08.2026 -
Marcel Ruiz Toluca Ativo 140 / 139 40% 1 18.08.2026 -
Kevin Álvarez Club America Ativo 128 / 133 40% 1 16.08.2026 -
Bruno Méndez Toluca Ativo 122 / 120 40% 1 16.08.2026 -
Sebastián Cáceres Club America Ativo 137 / 130 40% 2 15.08.2026 -
José Luis Caicedo Barranquilla Ativo 126 / 129 40% 1 15.08.2026 -
Rodrigo Echeverría Leon Ativo 135 / 128 40% 2 14.08.2026 -
Federico Pereira Toluca Ativo 130 / 134 40% 1 14.08.2026 -
Cristian Montero Veracruz Ativo 133 / 128 40% 1 14.08.2026 -
Ľubomír Belko Viking Ativo 131 / 117 40% 1 13.08.2026 -
Erick Aguirre Monterrey Ativo 119 / 117 40% 1 11.08.2026 -
Christian Rivera Pachuca Ativo 127 / 131 40% 1 11.08.2026 -
Nikita Haikin Bodo/Glimt Ativo 145 / 129 40% 1 08.08.2026 -
Luis Abram Sporting Cristal Ativo 129 / 123 40% 1 06.08.2026 -
Adonis Frías Atlas Ativo 126 / 124 40% 1 04.08.2026 -
Rafael Santos Borré River Plate Ativo 126 / 134 40% 1 02.08.2026 -
Alexandr Sobolev Zenit Ativo 123 / 122 40% 1 02.08.2026 -